createdAt,value
2022-09-06T00:09:13.395Z,16.98
2022-09-06T00:19:16.462Z,16.89
2022-09-06T00:29:20.829Z,16.84
2022-09-06T00:39:24.079Z,16.80
2022-09-06T00:49:32.893Z,16.80
2022-09-06T00:59:38.961Z,16.85
2022-09-06T01:10:00.095Z,16.90
2022-09-06T01:20:39.157Z,16.97
2022-09-06T01:30:49.042Z,16.86
2022-09-06T01:40:52.118Z,16.75
2022-09-06T01:51:06.744Z,16.66
2022-09-06T02:01:14.956Z,16.59
2022-09-06T02:11:19.674Z,16.64
2022-09-06T02:21:30.694Z,16.73
2022-09-06T02:31:39.107Z,16.66
2022-09-06T02:41:44.630Z,16.50
2022-09-06T02:51:48.989Z,16.37
2022-09-06T03:01:52.035Z,16.33
2022-09-06T03:11:56.446Z,16.47
2022-09-06T03:21:59.446Z,16.53
2022-09-06T03:32:04.177Z,16.46
2022-09-06T03:42:07.512Z,16.27
2022-09-06T03:52:11.902Z,16.18
2022-09-06T04:02:15.003Z,16.02
2022-09-06T04:12:19.417Z,15.86
2022-09-06T04:22:22.455Z,15.67
2022-09-06T04:32:26.865Z,15.57
2022-09-06T04:42:29.994Z,15.45
2022-09-06T04:52:34.338Z,15.37
2022-09-06T05:02:37.565Z,15.25
2022-09-06T05:12:44.262Z,15.16
2022-09-06T05:22:54.257Z,15.13
2022-09-06T05:32:58.883Z,15.27
2022-09-06T05:43:01.979Z,15.45
2022-09-06T05:53:06.416Z,15.61
2022-09-06T06:03:09.333Z,15.80
2022-09-06T06:13:13.662Z,16.02
2022-09-06T06:23:16.732Z,16.29
2022-09-06T06:33:21.256Z,16.54
2022-09-06T06:43:24.692Z,16.74
2022-09-06T06:53:29.558Z,17.07
2022-09-06T07:03:32.736Z,17.41
2022-09-06T07:13:37.978Z,17.77
2022-09-06T07:34:06.339Z,18.55
2022-09-06T07:44:09.556Z,18.94
2022-09-06T07:54:29.918Z,19.33
2022-09-06T08:04:34.029Z,19.91
2022-09-06T08:14:38.624Z,20.26
2022-09-06T08:24:41.752Z,20.28
2022-09-06T08:34:46.228Z,20.46
2022-09-06T08:55:17.432Z,21.27
2022-09-06T09:05:25.872Z,21.51
2022-09-06T09:15:30.567Z,21.75
2022-09-06T09:25:35.328Z,22.02
2022-09-06T09:35:43.289Z,22.38
2022-09-06T09:45:47.310Z,22.61
2022-09-06T09:55:57.137Z,22.89
2022-09-06T10:06:02.799Z,23.03
2022-09-06T10:16:08.786Z,23.40
2022-09-06T10:26:20.119Z,23.77
2022-09-06T10:36:30.999Z,23.93
2022-09-06T10:46:36.438Z,24.15
2022-09-06T10:56:46.647Z,24.49
2022-09-06T11:06:56.608Z,24.83
2022-09-06T11:17:06.019Z,25.09
2022-09-06T11:27:14.103Z,25.45
2022-09-06T11:37:27.311Z,25.72
2022-09-06T11:47:39.331Z,25.99
2022-09-06T11:57:44.282Z,26.24
2022-09-06T12:08:28.267Z,26.42
2022-09-06T12:19:00.697Z,26.64
2022-09-06T12:29:11.647Z,26.80
2022-09-06T12:39:16.443Z,27.15
2022-09-06T12:49:22.010Z,27.44
2022-09-06T12:59:27.334Z,27.59
2022-09-06T13:09:31.589Z,27.54
2022-09-06T13:19:38.276Z,27.73
2022-09-06T13:29:56.069Z,27.66
2022-09-06T13:40:05.238Z,27.98
2022-09-06T13:50:09.275Z,28.15
2022-09-06T14:00:15.739Z,28.11
2022-09-06T14:10:22.202Z,28.10
2022-09-06T14:20:29.866Z,28.21
2022-09-06T14:30:33.297Z,28.30
2022-09-06T14:40:47.740Z,28.71
2022-09-06T14:50:53.708Z,29.15
2022-09-06T15:01:06.533Z,29.48
2022-09-06T15:11:11.332Z,29.45
2022-09-06T15:21:19.236Z,29.52
2022-09-06T15:31:25.099Z,29.60
2022-09-06T15:41:40.540Z,29.23
2022-09-06T15:51:44.114Z,28.45
2022-09-06T16:01:49.010Z,27.87
2022-09-06T16:11:57.177Z,27.35
2022-09-06T16:22:06.064Z,26.78
2022-09-06T16:32:18.225Z,26.59
2022-09-06T16:42:22.833Z,26.24
2022-09-06T16:52:34.978Z,25.98
2022-09-06T17:02:47.135Z,25.51
2022-09-06T17:12:50.325Z,25.14
2022-09-06T17:22:57.767Z,24.84
2022-09-06T17:33:04.971Z,24.67
2022-09-06T17:43:18.395Z,24.61
2022-09-06T17:53:21.578Z,24.37
2022-09-06T18:03:26.233Z,23.97
2022-09-06T18:13:29.470Z,23.56
2022-09-06T18:23:34.796Z,23.25
2022-09-06T18:33:38.827Z,23.03
2022-09-06T18:43:43.831Z,22.86
2022-09-06T18:53:47.146Z,22.79
2022-09-06T19:03:51.936Z,22.65
2022-09-06T19:13:57.088Z,22.58
2022-09-06T19:24:04.298Z,22.54
2022-09-06T19:34:07.927Z,22.46
2022-09-06T19:44:12.678Z,22.32
2022-09-06T19:54:16.960Z,22.09
2022-09-06T20:04:22.091Z,21.82
2022-09-06T20:14:26.403Z,21.56
2022-09-06T20:24:30.804Z,21.27
2022-09-06T20:34:34.070Z,21.09
2022-09-06T20:44:38.508Z,20.93
2022-09-06T20:54:41.552Z,20.91
2022-09-06T21:04:46.060Z,20.93
2022-09-06T21:14:49.550Z,20.95
2022-09-06T21:24:53.963Z,20.93
2022-09-06T21:34:57.003Z,20.99
2022-09-06T21:45:01.524Z,20.95
2022-09-06T21:55:04.728Z,20.91
2022-09-06T22:05:09.899Z,20.36
2022-09-06T22:15:13.762Z,19.58
2022-09-06T22:25:18.369Z,19.24
2022-09-06T22:35:21.905Z,18.50
2022-09-06T22:45:26.935Z,18.21
2022-09-06T22:55:29.933Z,17.96
2022-09-06T23:05:34.688Z,17.66
2022-09-06T23:15:40.821Z,17.32
2022-09-06T23:25:45.421Z,16.95
2022-09-06T23:35:48.377Z,16.72
2022-09-06T23:45:52.756Z,16.59
2022-09-06T23:55:55.822Z,16.13
